Main page
METAR-TAF:

METAR-TAF

Airports :

Kristiansand Airport. Kjevik

Kristiansand, Norway

latitude: 58-12N, longitude: 008-05E, elevation: 1 m

Current weather observation

The report was made 24 minutes ago, at 03:20 UTC
Wind 8 kt from the West
Temperature 6°C
Humidity 93%
Pressure 1016 hPa
Visibility 10 km or more

METAR: ENCN 230320Z AUTO 26008KT 9999 NCD 06/05 Q1016

Time: 04:44 (03:44 UTC)

Forecast

The report was made 1 hour and 44 minutes ago, at 02:00 UTC
Forecast valid from 23 at 03 UTC to 23 at 12 UTC
Wind 12 kt from the West/Southwest
Visibility 10 km or more
Scattered clouds at a height of 1000 ft
Temporary
from 23 at 08 UTC to 23 at 12 UTC
Wind 15 kt from the West with gusts up to 28 kt

TAF: ENCN 230200Z 2303/2312 24012KT 9999 SCT010 TEMPO 2308/2312 27015G28KT

Weather observations and forecasts of more than 4000 airports (METAR and TAF reports).

The available stations are represented by yellow and red dots on the map.

Hover mouse over dot to see the name of the station.

Then click to see weather observations and forecasts.

To change the map : click on the green buttons with a black cross to zoom in, on the green button with a dash to zoom out, or on the green arrows for adjacent maps.


METAR-TAF: